createdAt,value
2018-03-24T00:03:46.767Z,5.50
2018-03-24T00:09:52.643Z,5.50
2018-03-24T00:15:57.190Z,5.50
2018-03-24T00:22:02.568Z,5.50
2018-03-24T00:28:07.107Z,5.50
2018-03-24T00:34:11.610Z,5.40
2018-03-24T00:40:16.533Z,5.50
2018-03-24T00:46:21.793Z,5.50
2018-03-24T00:52:26.394Z,5.40
2018-03-24T00:58:31.000Z,5.40
2018-03-24T01:04:36.285Z,5.30
2018-03-24T01:10:40.924Z,5.30
2018-03-24T01:16:45.544Z,5.20
2018-03-24T01:22:50.925Z,5.20
2018-03-24T01:28:55.417Z,5.20
2018-03-24T01:35:00.010Z,5.20
2018-03-24T01:41:05.488Z,5.20
2018-03-24T01:47:10.759Z,5.20
2018-03-24T01:53:15.332Z,5.20
2018-03-24T01:59:22.141Z,5.20
2018-03-24T02:05:26.660Z,5.20
2018-03-24T02:11:31.179Z,5.20
2018-03-24T02:17:35.827Z,5.10
2018-03-24T02:23:41.155Z,5.00
2018-03-24T02:29:47.500Z,5.00
2018-03-24T02:35:52.272Z,5.00
2018-03-24T02:41:56.792Z,4.90
2018-03-24T02:48:01.732Z,4.80
2018-03-24T02:54:06.364Z,4.70
2018-03-24T03:00:10.979Z,4.70
2018-03-24T03:06:16.662Z,4.60
2018-03-24T03:12:21.869Z,4.60
2018-03-24T03:18:26.390Z,4.70
2018-03-24T03:24:31.007Z,4.70
2018-03-24T03:30:40.974Z,4.70
2018-03-24T03:36:45.488Z,4.60
2018-03-24T03:42:50.998Z,4.60
2018-03-24T03:48:55.538Z,4.60
2018-03-24T03:55:00.172Z,4.60
2018-03-24T04:01:04.990Z,4.70
2018-03-24T04:07:10.246Z,4.70
2018-03-24T04:13:14.742Z,4.70
2018-03-24T04:19:20.888Z,4.60
2018-03-24T04:25:25.808Z,4.60
2018-03-24T04:31:31.132Z,4.50
2018-03-24T04:37:35.637Z,4.50
2018-03-24T04:43:40.963Z,4.40
2018-03-24T04:49:45.620Z,4.40
2018-03-24T04:55:51.000Z,4.40
2018-03-24T05:01:56.506Z,4.30
2018-03-24T05:08:01.823Z,4.30
2018-03-24T05:14:06.540Z,4.30
2018-03-24T05:20:11.295Z,4.40
2018-03-24T05:26:15.942Z,4.40
2018-03-24T05:32:21.256Z,4.40
2018-03-24T05:38:26.009Z,4.40
2018-03-24T05:44:30.741Z,4.40
2018-03-24T05:50:35.405Z,4.50
2018-03-24T05:56:40.109Z,4.60
2018-03-24T06:02:44.734Z,4.70
2018-03-24T06:08:50.726Z,4.80
2018-03-24T06:14:56.123Z,5.00
2018-03-24T06:21:00.922Z,5.00
2018-03-24T06:27:05.434Z,5.00
2018-03-24T06:33:10.767Z,5.20
2018-03-24T06:39:15.327Z,5.20
2018-03-24T06:45:20.922Z,5.40
2018-03-24T06:51:25.925Z,5.40
2018-03-24T06:57:31.240Z,5.70
2018-03-24T07:03:35.733Z,5.70
2018-03-24T07:09:40.240Z,5.80
2018-03-24T07:15:46.358Z,6.20
2018-03-24T07:21:51.180Z,6.20
2018-03-24T07:27:55.739Z,6.40
2018-03-24T07:34:01.000Z,6.80
2018-03-24T07:40:05.468Z,6.80
2018-03-24T07:46:09.984Z,7.10
2018-03-24T07:52:15.380Z,7.10
2018-03-24T07:58:20.528Z,7.10
2018-03-24T08:04:25.095Z,7.10
2018-03-24T08:10:29.571Z,7.00
2018-03-24T08:16:34.291Z,7.10
2018-03-24T08:22:39.697Z,7.20
2018-03-24T08:28:44.379Z,7.20
2018-03-24T08:34:49.627Z,7.40
2018-03-24T08:40:54.124Z,7.60
2018-03-24T08:46:58.680Z,7.90
2018-03-24T08:53:03.277Z,8.40
2018-03-24T08:59:07.816Z,8.70
2018-03-24T09:05:12.509Z,9.00
2018-03-24T09:11:17.755Z,9.50
2018-03-24T09:17:22.607Z,9.60
2018-03-24T09:23:27.110Z,9.90
2018-03-24T09:29:31.658Z,9.90
2018-03-24T09:35:36.456Z,9.80
2018-03-24T09:41:41.022Z,10.00
2018-03-24T09:47:46.062Z,10.40
2018-03-24T09:53:50.794Z,10.60
2018-03-24T09:59:56.845Z,11.50
2018-03-24T10:06:01.524Z,11.50
2018-03-24T10:12:06.857Z,11.90
2018-03-24T10:18:11.517Z,11.90
2018-03-24T10:24:29.873Z,11.80
2018-03-24T10:30:34.420Z,12.10
2018-03-24T10:36:38.935Z,12.00
2018-03-24T10:42:43.589Z,12.70
2018-03-24T10:48:48.843Z,13.20
2018-03-24T10:54:53.613Z,13.50
2018-03-24T11:01:05.169Z,13.80
2018-03-24T11:07:09.652Z,13.80
2018-03-24T11:13:14.153Z,12.80
2018-03-24T11:19:20.199Z,12.20
2018-03-24T11:25:24.947Z,11.70
2018-03-24T11:31:29.689Z,11.70
2018-03-24T11:37:34.216Z,11.60
2018-03-24T11:43:39.478Z,11.70
2018-03-24T11:49:44.040Z,11.70
2018-03-24T11:55:48.628Z,11.70
2018-03-24T12:01:53.454Z,11.60
2018-03-24T12:07:58.705Z,11.80
2018-03-24T12:14:03.175Z,11.80
2018-03-24T12:20:07.754Z,12.60
2018-03-24T12:26:12.259Z,15.60
2018-03-24T12:32:17.500Z,17.10
2018-03-24T12:38:22.062Z,16.70
2018-03-24T12:44:26.753Z,15.70
2018-03-24T12:50:32.018Z,14.40
2018-03-24T12:56:37.298Z,14.30
2018-03-24T13:02:41.859Z,14.30
2018-03-24T13:08:46.722Z,13.70
2018-03-24T13:14:51.902Z,13.40
2018-03-24T13:20:56.496Z,12.70
2018-03-24T13:27:01.057Z,12.80
2018-03-24T13:33:05.623Z,13.10
2018-03-24T13:39:10.927Z,14.50
2018-03-24T13:45:16.122Z,14.50
2018-03-24T13:51:21.064Z,15.00
2018-03-24T13:57:25.569Z,16.00
2018-03-24T14:03:30.104Z,18.20
2018-03-24T14:09:34.943Z,19.40
2018-03-24T14:15:40.208Z,19.30
2018-03-24T14:21:44.737Z,19.20
2018-03-24T14:27:49.470Z,19.90
2018-03-24T14:33:54.079Z,20.90
2018-03-24T14:39:58.571Z,21.90
2018-03-24T14:46:03.051Z,22.00
2018-03-24T14:52:07.536Z,22.10
2018-03-24T14:58:12.472Z,21.60
2018-03-24T15:04:17.788Z,20.60
2018-03-24T15:10:22.342Z,20.90
2018-03-24T15:16:26.856Z,22.20
2018-03-24T15:22:32.105Z,21.70
2018-03-24T15:28:36.609Z,21.70
2018-03-24T15:34:58.933Z,21.00
2018-03-24T15:41:03.394Z,20.90
2018-03-24T15:47:08.652Z,21.30
2018-03-24T15:53:13.171Z,21.30
2018-03-24T15:59:19.351Z,20.00
2018-03-24T16:05:23.900Z,19.90
2018-03-24T16:11:28.523Z,20.20
2018-03-24T16:17:33.177Z,20.80
2018-03-24T16:23:37.691Z,21.00
2018-03-24T16:29:42.233Z,20.30
2018-03-24T16:35:46.741Z,20.20
2018-03-24T16:41:51.397Z,19.50
2018-03-24T16:47:55.952Z,18.20
2018-03-24T16:54:00.627Z,18.00
2018-03-24T17:00:05.380Z,16.40
2018-03-24T17:06:09.939Z,15.70
2018-03-24T17:12:14.473Z,14.70
2018-03-24T17:18:20.104Z,12.90
2018-03-24T17:24:24.605Z,12.80
2018-03-24T17:30:29.094Z,11.90
2018-03-24T17:36:34.340Z,9.40
2018-03-24T17:42:38.862Z,9.30
2018-03-24T17:48:43.369Z,8.60
2018-03-24T17:54:48.231Z,8.00
2018-03-24T18:00:52.943Z,7.50
2018-03-24T18:06:57.451Z,7.20
2018-03-24T18:13:03.784Z,6.90
2018-03-24T18:19:08.359Z,6.80
2018-03-24T18:25:13.385Z,6.70
2018-03-24T18:31:18.711Z,6.60
2018-03-24T18:37:23.223Z,6.50
2018-03-24T18:43:28.407Z,6.40
2018-03-24T18:49:32.946Z,6.30
2018-03-24T18:55:38.251Z,6.10
2018-03-24T19:01:43.496Z,6.20
2018-03-24T19:07:49.293Z,6.20
2018-03-24T19:13:54.101Z,6.40
2018-03-24T19:19:58.692Z,6.50
2018-03-24T19:26:03.264Z,6.50
2018-03-24T19:32:07.759Z,6.50
2018-03-24T19:38:12.621Z,6.30
2018-03-24T19:44:17.326Z,6.30
2018-03-24T19:50:21.827Z,6.20
2018-03-24T19:56:26.495Z,6.00
2018-03-24T20:02:31.728Z,6.00
2018-03-24T20:08:36.300Z,5.90
2018-03-24T20:14:41.763Z,6.00
2018-03-24T20:20:47.203Z,5.80
2018-03-24T20:26:51.939Z,5.80
2018-03-24T20:32:56.492Z,5.60
2018-03-24T20:39:01.087Z,5.60
2018-03-24T20:45:05.599Z,5.60
2018-03-24T20:51:10.183Z,5.50
2018-03-24T20:57:14.727Z,5.40
2018-03-24T21:03:19.340Z,5.30
2018-03-24T21:09:23.913Z,5.10
2018-03-24T21:15:29.277Z,5.00
2018-03-24T21:21:33.872Z,4.90
2018-03-24T21:27:38.489Z,4.90
2018-03-24T21:33:43.119Z,4.70
2018-03-24T21:39:48.026Z,4.60
2018-03-24T21:45:53.362Z,4.60
2018-03-24T21:51:57.955Z,4.60
2018-03-24T21:58:02.568Z,4.50
2018-03-24T22:04:07.103Z,4.40
2018-03-24T22:10:11.724Z,4.40
2018-03-24T22:16:16.841Z,4.30
2018-03-24T22:22:21.967Z,4.40
2018-03-24T22:28:26.611Z,4.30
2018-03-24T22:34:31.165Z,4.20
2018-03-24T22:40:35.651Z,4.00
2018-03-24T22:46:40.149Z,4.00
2018-03-24T22:52:44.652Z,4.00
2018-03-24T22:58:49.668Z,3.90
2018-03-24T23:04:55.309Z,3.60
2018-03-24T23:11:00.563Z,3.50
2018-03-24T23:17:05.173Z,3.40
2018-03-24T23:23:09.744Z,3.40
2018-03-24T23:29:14.907Z,3.30
2018-03-24T23:35:19.591Z,3.20
2018-03-24T23:41:24.112Z,3.10
2018-03-24T23:47:28.608Z,3.00
2018-03-24T23:53:33.188Z,2.90
2018-03-24T23:59:38.444Z,2.70
